Time;durP1;ratioP1;P1;durP2;ratioP2;P2;SDS_P1;SDS_P2;PMS_P1;PMS_P2;Temp;Humidity;BMP_temperature;BMP_pressure;BME280_temperature;BME280_humidity;BME280_pressure;Samples;Min_cycle;Max_cycle;Signal;HPM_P1;HPM_P2
2021/12/15 00:01:23;;;;;;;4.45;2.08;;;;;;;15.72;66.48;101724.41;4882294;29;20436;-90
2021/12/15 00:03:48;;;;;;;6.18;2.90;;;;;;;15.64;66.61;101726.75;4882230;29;20029;-90
2021/12/15 00:06:18;;;;;;;8.80;3.05;;;;;;;15.57;66.77;101725.44;4882069;29;20033;-91
2021/12/15 00:08:46;;;;;;;6.40;2.75;;;;;;;15.76;66.57;101723.28;4880956;29;20021;-90
2021/12/15 00:11:12;;;;;;;9.40;2.40;;;;;;;15.49;67.29;101719.84;4880808;29;20113;-91
2021/12/15 00:13:43;;;;;;;10.30;2.70;;;;;;;15.68;66.75;101722.94;4882311;29;20116;-90
2021/12/15 00:16:10;;;;;;;4.13;1.83;;;;;;;15.78;65.96;101726.66;4881493;29;20033;-91
2021/12/15 00:18:41;;;;;;;6.55;2.50;;;;;;;15.60;66.73;101718.16;4882049;29;20033;-90
2021/12/15 00:21:08;;;;;;;7.97;2.50;;;;;;;15.72;66.37;101729.69;4882301;29;20057;-90
2021/12/15 00:23:34;;;;;;;7.13;2.53;;;;;;;15.82;66.53;101725.50;4882094;29;20073;-91
2021/12/15 00:25:59;;;;;;;9.35;2.33;;;;;;;15.80;66.49;101727.41;4882046;29;20112;-91
2021/12/15 00:28:24;;;;;;;8.13;2.50;;;;;;;15.47;67.32;101734.00;4881891;29;20458;-90
2021/12/15 00:30:50;;;;;;;4.88;2.25;;;;;;;15.79;66.31;101719.56;4880499;29;20025;-90
2021/12/15 00:33:16;;;;;;;9.05;2.88;;;;;;;15.88;66.01;101726.88;4881474;29;20060;-91
2021/12/15 00:35:41;;;;;;;9.63;2.10;;;;;;;15.95;66.04;101721.97;4881690;29;20037;-89
2021/12/15 00:38:07;;;;;;;4.38;2.10;;;;;;;15.88;66.04;101726.00;4882044;29;20029;-90
2021/12/15 00:40:33;;;;;;;6.57;2.60;;;;;;;15.92;66.09;101730.16;4881634;29;20021;-91
2021/12/15 00:42:59;;;;;;;4.78;2.70;;;;;;;15.82;66.41;101725.50;4881745;29;20503;-90
2021/12/15 00:45:25;;;;;;;16.15;3.15;;;;;;;15.62;66.77;101728.63;4881609;29;20028;-90
2021/12/15 00:47:50;;;;;;;8.00;2.72;;;;;;;15.96;65.91;101736.94;4881289;29;20032;-91
2021/12/15 00:50:19;;;;;;;8.38;2.95;;;;;;;16.13;65.38;101733.94;4881522;29;20108;-91
2021/12/15 00:52:45;;;;;;;8.50;2.80;;;;;;;16.13;65.66;101733.94;4879970;29;20033;-90
2021/12/15 00:55:15;;;;;;;8.25;3.15;;;;;;;15.96;65.70;101744.88;4881494;29;20022;-91
2021/12/15 00:57:41;;;;;;;7.03;2.45;;;;;;;15.98;65.81;101735.03;4880317;29;20104;-90
2021/12/15 01:00:10;;;;;;;7.60;2.53;;;;;;;16.01;65.85;101740.09;4881407;29;20169;-90
2021/12/15 01:02:36;;;;;;;9.00;3.75;;;;;;;16.09;65.20;101735.09;4880911;29;20041;-90
2021/12/15 01:05:02;;;;;;;6.60;2.92;;;;;;;15.91;65.93;101739.03;4881289;29;20025;-90
2021/12/15 01:07:28;;;;;;;5.28;2.70;;;;;;;16.00;65.56;101743.72;4881385;29;20012;-90
2021/12/15 01:09:56;;;;;;;5.65;2.72;;;;;;;16.01;65.74;101734.81;4881337;29;20025;-91
2021/12/15 01:20:57;;;;;;;7.30;2.50;;;;;;;16.10;65.18;101734.16;4881281;29;20036;-91
2021/12/15 01:23:25;;;;;;;8.38;3.05;;;;;;;16.24;64.77;101730.53;4880808;29;20044;-91
2021/12/15 01:26:13;;;;;;;10.60;3.33;;;;;;;16.09;65.72;101731.63;4879858;29;20391;-91
2021/12/15 01:28:39;;;;;;;12.43;2.80;;;;;;;16.06;65.81;101733.53;4881178;29;20085;-91
2021/12/15 01:31:06;;;;;;;10.02;3.50;;;;;;;16.34;64.39;101736.03;4880585;29;20411;-91
2021/12/15 01:33:33;;;;;;;7.85;3.22;;;;;;;16.28;64.98;101736.47;4880649;29;20052;-90
2021/12/15 01:35:59;;;;;;;5.10;2.75;;;;;;;16.14;65.26;101735.66;4880779;29;20387;-91
2021/12/15 01:38:29;;;;;;;9.90;2.95;;;;;;;16.15;65.57;101736.47;4880748;29;20040;-91
2021/12/15 01:40:55;;;;;;;11.57;3.25;;;;;;;16.27;64.99;101732.97;4880842;29;20149;-91
2021/12/15 01:49:11;;;;;;;8.00;2.60;;;;;;;16.22;64.65;101743.91;4880612;29;20129;-91
2021/12/15 01:51:37;;;;;;;5.65;2.90;;;;;;;16.13;64.82;101751.63;4880560;29;20036;-92
2021/12/15 01:54:04;;;;;;;5.85;2.20;;;;;;;16.16;64.34;101749.63;4880457;29;20025;-91
2021/12/15 01:56:30;;;;;;;7.18;2.58;;;;;;;16.12;64.32;101745.50;4880699;29;20027;-91
2021/12/15 01:58:57;;;;;;;5.68;2.40;;;;;;;16.31;64.50;101737.13;4880551;29;20061;-91
2021/12/15 02:01:23;;;;;;;7.43;2.45;;;;;;;16.16;64.68;101746.97;4879505;29;20104;-91
2021/12/15 02:03:49;;;;;;;4.35;2.25;;;;;;;16.38;64.03;101746.31;4879747;29;20036;-91
2021/12/15 02:06:15;;;;;;;4.18;2.42;;;;;;;16.30;64.13;101751.31;4879183;29;20037;-91
2021/12/15 02:08:41;;;;;;;5.43;2.70;;;;;;;16.44;63.98;101758.28;4879943;29;20025;-91
2021/12/15 02:11:07;;;;;;;10.30;3.08;;;;;;;16.37;64.26;101751.72;4880550;29;20481;-91
2021/12/15 02:13:33;;;;;;;5.78;2.83;;;;;;;16.43;64.00;101756.59;4879839;29;20056;-91
2021/12/15 02:16:02;;;;;;;7.25;3.10;;;;;;;16.39;64.20;101761.28;4879899;29;20025;-91
2021/12/15 02:18:34;;;;;;;4.47;3.08;;;;;;;16.51;63.89;101764.84;4880214;29;20047;-91
2021/12/15 02:21:09;;;;;;;5.60;3.03;;;;;;;16.31;64.08;101758.31;4879055;29;20037;-91
2021/12/15 02:23:40;;;;;;;7.47;3.58;;;;;;;16.33;64.38;101768.78;4880078;29;20563;-90
2021/12/15 02:26:10;;;;;;;;;;;;;;;16.31;64.16;101768.91;4879446;29;20061;-91
2021/12/15 02:28:38;;;;;;;8.07;2.85;;;;;;;16.27;64.10;101767.41;4879889;29;20388;-91
2021/12/15 02:33:56;;;;;;;4.70;2.50;;;;;;;16.20;64.33;101772.31;4880016;29;20555;-91
2021/12/15 02:39:08;;;;;;;10.35;2.83;;;;;;;15.92;64.99;101769.91;4879869;29;20032;-90
2021/12/15 02:41:35;;;;;;;7.53;2.80;;;;;;;16.05;65.16;101753.03;4880062;29;20029;-90
2021/12/15 02:44:09;;;;;;;8.13;2.72;;;;;;;16.11;64.69;101766.81;4880020;29;20543;-91
2021/12/15 02:46:35;;;;;;;5.85;2.70;;;;;;;16.19;64.96;101759.16;4879925;29;20033;-91
2021/12/15 02:49:02;;;;;;;7.95;2.88;;;;;;;16.16;64.92;101768.19;4879879;29;20033;-91
2021/12/15 02:51:28;;;;;;;4.38;2.15;;;;;;;16.18;64.71;101763.63;4879492;29;20033;-90
2021/12/15 02:53:58;;;;;;;6.95;2.83;;;;;;;16.12;64.65;101769.34;4879985;29;20177;-91
2021/12/15 02:56:24;;;;;;;6.22;2.65;;;;;;;16.34;64.18;101766.03;4879627;29;20057;-90
2021/12/15 02:58:58;;;;;;;7.60;2.80;;;;;;;16.42;63.75;101768.97;4879535;29;20152;-90
2021/12/15 03:01:36;;;;;;;5.70;2.53;;;;;;;16.31;63.53;101763.63;4879441;29;20444;-91
2021/12/15 03:06:44;;;;;;;8.23;2.75;;;;;;;16.64;62.88;101759.50;4878954;29;20112;-91
2021/12/15 03:15:16;;;;;;;6.57;2.92;;;;;;;16.62;63.06;101767.56;4879583;29;20116;-91
2021/12/15 03:17:26;;;;;;;7.85;2.70;;;;;;;16.37;63.83;101762.31;4861255;29;20036;-91
2021/12/15 03:19:52;;;;;;;10.43;3.20;;;;;;;16.53;63.18;101765.59;4861750;29;20033;-91
2021/12/15 03:22:18;;;;;;;6.63;2.60;;;;;;;16.48;63.08;101762.41;4864634;29;20041;-91
2021/12/15 03:24:43;;;;;;;7.13;2.85;;;;;;;16.46;63.23;101761.66;4864731;29;20460;-91
2021/12/15 03:27:15;;;;;;;6.32;2.78;;;;;;;16.63;62.90;101771.06;4864862;29;20033;-90
2021/12/15 03:37:45;;;;;;;7.38;2.70;;;;;;;16.59;62.93;101773.09;4864746;29;20030;-91
2021/12/15 03:40:18;;;;;;;8.85;2.72;;;;;;;16.52;63.18;101774.47;4864493;29;20032;-91
2021/12/15 03:42:57;;;;;;;9.80;4.15;;;;;;;16.40;63.34;101767.41;4863175;29;20029;-90
2021/12/15 03:45:34;;;;;;;8.65;3.13;;;;;;;16.53;63.00;101767.38;4868735;29;20544;-91
2021/12/15 03:48:03;;;;;;;5.90;2.25;;;;;;;16.37;63.49;101770.25;4881885;29;20044;-91
2021/12/15 03:50:29;;;;;;;5.05;2.45;;;;;;;16.48;63.05;101757.09;4882888;29;20108;-91
2021/12/15 03:52:55;;;;;;;4.93;2.55;;;;;;;16.58;62.88;101760.78;4881451;29;20120;-90
2021/12/15 03:55:24;;;;;;;7.35;2.70;;;;;;;16.44;63.27;101758.28;4882622;29;20029;-90
2021/12/15 03:57:51;;;;;;;7.63;2.83;;;;;;;16.54;63.06;101750.50;4885019;29;20035;-90
2021/12/15 04:00:17;;;;;;;5.13;2.50;;;;;;;16.61;62.88;101760.56;4881983;29;20028;-90
2021/12/15 04:02:44;;;;;;;8.60;2.50;;;;;;;16.66;63.00;101761.06;4881225;29;20487;-91
2021/12/15 04:05:12;;;;;;;7.78;2.47;;;;;;;16.70;62.82;101758.22;4882561;29;20492;-91
2021/12/15 04:07:37;;;;;;;11.25;3.17;;;;;;;16.66;62.99;101763.72;4882960;29;20040;-91
2021/12/15 04:10:10;;;;;;;6.25;2.72;;;;;;;16.71;62.78;101771.38;4882328;29;20036;-91
2021/12/15 04:12:36;;;;;;;8.32;3.28;;;;;;;16.50;63.16;101768.44;4882241;29;20093;-91
2021/12/15 04:17:49;;;;;;;12.15;2.78;;;;;;;16.59;62.88;101775.75;4882537;29;20045;-91
2021/12/15 04:20:18;;;;;;;8.10;3.10;;;;;;;16.54;63.14;101769.06;4882103;29;20061;-91
2021/12/15 04:22:44;;;;;;;7.53;2.90;;;;;;;16.62;62.99;101778.16;4881954;29;20041;-91
2021/12/15 04:25:18;;;;;;;10.70;2.72;;;;;;;16.55;63.08;101771.63;4882134;29;20029;-91
2021/12/15 04:28:01;;;;;;;6.25;2.15;;;;;;;16.76;63.09;101774.50;4882258;29;20025;-91
2021/12/15 04:30:28;;;;;;;6.97;3.47;;;;;;;16.61;63.31;101776.47;4881658;29;20029;-91
2021/12/15 04:32:58;;;;;;;5.45;2.63;;;;;;;16.52;63.43;101774.47;4882037;29;20076;-90
2021/12/15 04:35:24;;;;;;;10.45;3.22;;;;;;;16.53;63.11;101778.84;4882196;29;20178;-90
2021/12/15 04:37:51;;;;;;;11.30;3.33;;;;;;;16.36;64.02;101776.53;4882246;29;20061;-90
2021/12/15 04:40:19;;;;;;;7.75;3.22;;;;;;;16.39;63.76;101771.00;4882373;29;20036;-90
2021/12/15 04:42:45;;;;;;;11.93;3.40;;;;;;;16.62;63.25;101767.56;4882470;29;20032;-90
2021/12/15 04:45:14;;;;;;;8.32;4.07;;;;;;;16.59;63.82;101769.59;4882155;29;20028;-91
2021/12/15 04:47:40;;;;;;;7.20;3.33;;;;;;;16.52;63.53;101761.22;4881916;29;20180;-91
2021/12/15 04:50:07;;;;;;;8.77;3.33;;;;;;;16.63;63.70;101766.63;4881513;29;20044;-90
2021/12/15 04:52:32;;;;;;;8.05;3.50;;;;;;;16.77;63.39;101764.78;4881664;29;20392;-90
2021/12/15 04:54:59;;;;;;;8.65;3.50;;;;;;;16.73;63.29;101763.31;4881630;29;20028;-91
2021/12/15 04:57:27;;;;;;;10.68;4.43;;;;;;;16.59;64.19;101767.78;4881817;29;20024;-91
2021/12/15 04:59:53;;;;;;;6.82;3.75;;;;;;;16.69;63.89;101767.97;4881523;29;20031;-90
2021/12/15 05:02:20;;;;;;;10.98;3.95;;;;;;;16.85;62.96;101770.41;4880709;29;20457;-91
2021/12/15 05:04:46;;;;;;;9.55;3.70;;;;;;;16.75;62.99;101764.03;4880476;29;20476;-91
2021/12/15 05:07:14;;;;;;;6.25;3.45;;;;;;;16.75;63.42;101778.16;4881702;29;20076;-91
2021/12/15 05:09:40;;;;;;;6.78;3.53;;;;;;;16.71;63.62;101767.88;4881922;29;20025;-91
2021/12/15 05:12:08;;;;;;;10.70;4.50;;;;;;;16.64;64.46;101768.28;4881291;29;20033;-91
2021/12/15 05:14:34;;;;;;;6.30;3.47;;;;;;;16.70;63.84;101774.13;4881017;29;20037;-91
2021/12/15 05:16:59;;;;;;;6.93;3.55;;;;;;;16.74;63.69;101781.72;4880575;29;20028;-91
2021/12/15 05:19:27;;;;;;;6.80;3.50;;;;;;;16.76;63.38;101779.81;4881154;29;20391;-91
2021/12/15 05:21:54;;;;;;;9.63;3.88;;;;;;;16.67;63.59;101780.50;4880849;29;20498;-90
2021/12/15 05:24:38;;;;;;;11.50;4.97;;;;;;;16.64;63.52;101773.59;4881129;29;20232;-91
2021/12/15 05:27:09;;;;;;;6.43;3.83;;;;;;;16.63;64.28;101785.19;4880725;29;20546;-90
2021/12/15 05:29:35;;;;;;;9.07;5.03;;;;;;;16.61;64.43;101775.66;4880670;29;20033;-90
2021/12/15 05:32:01;;;;;;;9.10;4.50;;;;;;;16.67;63.78;101785.81;4880628;29;20165;-90
2021/12/15 05:34:26;;;;;;;8.75;4.55;;;;;;;16.70;63.56;101790.88;4881113;29;20499;-91
2021/12/15 05:36:53;;;;;;;13.45;4.90;;;;;;;16.78;63.66;101785.03;4880071;29;20025;-90
2021/12/15 05:39:21;;;;;;;11.55;5.43;;;;;;;16.64;64.07;101792.16;4881389;29;20068;-90
2021/12/15 05:41:47;;;;;;;11.07;4.72;;;;;;;16.64;64.04;101789.50;4880732;29;20029;-92
2021/12/15 05:44:13;;;;;;;10.23;4.78;;;;;;;16.61;63.94;101789.75;4880186;29;20486;-91
2021/12/15 05:46:38;;;;;;;6.75;4.20;;;;;;;16.73;64.01;101789.84;4880787;29;20021;-90
2021/12/15 05:49:04;;;;;;;5.95;4.75;;;;;;;16.68;64.00;101791.94;4880466;29;20021;-91
2021/12/15 05:51:30;;;;;;;8.88;4.75;;;;;;;16.71;63.69;101797.06;4880655;29;20037;-91
2021/12/15 05:53:56;;;;;;;7.70;4.75;;;;;;;16.64;64.25;101789.50;4879589;29;20048;-90
2021/12/15 05:56:21;;;;;;;15.45;5.07;;;;;;;16.67;63.89;101796.41;4880216;29;20476;-91
2021/12/15 05:58:47;;;;;;;12.25;4.05;;;;;;;16.68;64.16;101797.25;4880776;29;20108;-91
2021/12/15 06:01:12;;;;;;;9.82;4.78;;;;;;;16.65;64.40;101804.47;4880273;29;20391;-90
2021/12/15 06:03:38;;;;;;;11.25;4.68;;;;;;;16.63;64.27;101809.03;4880244;29;20033;-91
2021/12/15 06:06:04;;;;;;;7.57;4.25;;;;;;;16.60;64.40;101805.75;4880520;29;20029;-90
2021/12/15 06:08:30;;;;;;;11.00;4.55;;;;;;;16.54;64.24;101807.03;4880813;29;20033;-91
2021/12/15 06:10:55;;;;;;;8.85;4.72;;;;;;;16.45;64.47;101813.84;4880285;29;20033;-90
2021/12/15 06:13:23;;;;;;;8.43;4.68;;;;;;;16.59;64.21;101814.69;4880142;29;20041;-91
2021/12/15 06:15:49;;;;;;;7.93;4.43;;;;;;;16.60;64.30;101821.66;4879999;29;20476;-91
2021/12/15 06:18:17;;;;;;;13.15;5.65;;;;;;;16.55;64.51;101818.50;4880210;29;20111;-91
2021/12/15 06:20:45;;;;;;;16.65;5.28;;;;;;;16.34;64.79;101827.00;4880294;29;20168;-91
2021/12/15 06:23:17;;;;;;;13.23;5.45;;;;;;;16.47;64.57;101827.00;4879918;29;20039;-91
2021/12/15 06:25:43;;;;;;;10.85;5.45;;;;;;;16.45;64.79;101829.75;4880104;29;20112;-90
2021/12/15 06:28:09;;;;;;;10.43;5.50;;;;;;;16.46;64.44;101825.28;4880215;29;20486;-91
2021/12/15 06:30:36;;;;;;;10.93;5.80;;;;;;;16.35;65.01;101830.50;4879998;29;20420;-91
2021/12/15 06:33:02;;;;;;;11.90;5.68;;;;;;;16.42;64.92;101834.41;4879866;29;20100;-90
2021/12/15 06:35:28;;;;;;;16.35;6.07;;;;;;;16.46;64.93;101827.94;4880071;29;20029;-91
2021/12/15 06:37:54;;;;;;;11.48;5.30;;;;;;;16.50;64.76;101832.06;4879051;29;20368;-90
2021/12/15 06:40:19;;;;;;;10.05;5.75;;;;;;;16.51;64.96;101832.91;4879784;29;20491;-91
2021/12/15 06:42:45;;;;;;;9.20;5.88;;;;;;;16.10;65.84;101836.66;4880051;29;20029;-91
2021/12/15 06:45:16;;;;;;;11.75;5.60;;;;;;;16.30;65.41;101840.56;4879660;29;20578;-91
2021/12/15 06:58:49;;;;;;;13.93;6.00;;;;;;;16.45;65.17;101840.34;4880237;29;20121;-91
2021/12/15 07:01:15;;;;;;;12.07;5.30;;;;;;;16.38;65.53;101835.59;4878967;29;20104;-91
2021/12/15 07:03:41;;;;;;;9.80;5.32;;;;;;;16.59;65.12;101844.69;4877287;29;20116;-91
2021/12/15 07:06:06;;;;;;;12.40;5.30;;;;;;;16.49;64.58;101846.31;4879535;29;20041;-91
2021/12/15 07:08:32;;;;;;;10.73;6.07;;;;;;;16.59;64.91;101849.16;4879484;29;20486;-91
2021/12/15 07:11:00;;;;;;;13.60;6.28;;;;;;;16.54;65.15;101851.28;4878269;29;20029;-91
2021/12/15 07:13:26;;;;;;;11.50;5.68;;;;;;;16.65;64.61;101857.50;4878971;29;20033;-89
2021/12/15 07:15:59;;;;;;;8.07;5.20;;;;;;;16.75;64.37;101855.06;4879473;29;20037;-91
2021/12/15 07:18:37;;;;;;;13.48;5.82;;;;;;;16.69;64.10;101858.16;4879496;29;20030;-90
2021/12/15 07:21:08;;;;;;;12.90;6.28;;;;;;;16.50;65.01;101863.88;4877977;29;20164;-89
2021/12/15 07:23:34;;;;;;;13.55;6.15;;;;;;;16.56;64.79;101863.44;4879226;29;20040;-89
2021/12/15 07:26:00;;;;;;;10.82;6.07;;;;;;;16.60;64.67;101864.94;4881026;29;20032;-90
2021/12/15 07:28:25;;;;;;;14.95;6.45;;;;;;;16.48;64.82;101865.78;4880830;29;20029;-91
2021/12/15 07:30:53;;;;;;;14.95;6.35;;;;;;;16.50;64.82;101866.53;4878881;29;20472;-91
2021/12/15 07:33:19;;;;;;;11.63;6.13;;;;;;;16.56;64.71;101874.06;4879405;29;20033;-90
2021/12/15 07:35:44;;;;;;;11.23;7.13;;;;;;;16.53;64.78;101879.59;4881133;29;20093;-91
2021/12/15 07:38:10;;;;;;;11.48;6.22;;;;;;;16.69;63.91;101875.88;4912286;29;20103;-93
2021/12/15 07:40:35;;;;;;;11.35;5.88;;;;;;;16.63;64.56;101874.50;4912405;29;20376;-92
2021/12/15 07:43:10;;;;;;;13.60;5.97;;;;;;;16.56;64.69;101878.53;4897396;29;20025;-92
2021/12/15 07:45:45;;;;;;;13.68;6.32;;;;;;;16.57;65.00;101886.38;4881655;29;20033;-91
2021/12/15 07:48:14;;;;;;;17.27;7.35;;;;;;;16.48;64.86;101887.00;4897830;29;20052;-92
2021/12/15 07:50:42;;;;;;;10.75;5.85;;;;;;;16.55;64.90;101890.09;4898135;29;20009;-92
2021/12/15 07:53:08;;;;;;;14.20;5.85;;;;;;;16.55;65.00;101884.78;4897760;29;20063;-90
2021/12/15 07:55:35;;;;;;;15.27;6.13;;;;;;;16.60;64.33;101890.59;4897590;29;20450;-91
2021/12/15 07:58:02;;;;;;;12.95;6.88;;;;;;;16.32;65.67;101892.53;4910235;29;20402;-91
2021/12/15 08:00:28;;;;;;;13.07;6.90;;;;;;;16.37;65.37;101901.03;4878475;29;20104;-92
2021/12/15 08:02:54;;;;;;;12.45;6.70;;;;;;;16.43;65.02;101899.75;4878697;29;20059;-91
2021/12/15 08:05:20;;;;;;;12.88;7.28;;;;;;;16.46;65.18;101902.16;4878789;29;20077;-91
2021/12/15 08:07:45;;;;;;;11.35;6.72;;;;;;;16.18;65.70;101895.28;4882018;29;20037;-92
2021/12/15 08:10:12;;;;;;;12.73;7.00;;;;;;;16.49;65.46;101906.41;4881807;29;20029;-90
2021/12/15 08:12:43;;;;;;;11.05;6.07;;;;;;;16.65;64.97;101902.59;4880647;29;20403;-90
2021/12/15 08:15:10;;;;;;;13.70;7.67;;;;;;;16.37;65.71;101905.44;4881289;29;20029;-90
2021/12/15 08:17:38;;;;;;;8.25;6.00;;;;;;;16.52;65.09;101904.41;4889725;29;20017;-91
2021/12/15 08:20:07;;;;;;;16.55;6.88;;;;;;;16.25;65.18;101915.09;4881598;29;20029;-91
2021/12/15 08:22:33;;;;;;;15.45;6.18;;;;;;;16.55;64.98;101912.16;4881922;29;20033;-90
2021/12/15 08:24:59;;;;;;;13.35;6.60;;;;;;;16.62;64.61;101916.06;4881434;29;20489;-91
2021/12/15 08:27:25;;;;;;;8.65;4.95;;;;;;;16.75;64.60;101917.88;4881753;29;20399;-91
2021/12/15 08:29:50;;;;;;;13.50;6.40;;;;;;;16.63;64.73;101917.75;4882060;29;20048;-91
2021/12/15 08:32:16;;;;;;;9.93;6.50;;;;;;;16.60;64.58;101912.66;4881919;29;20037;-90
2021/12/15 08:34:41;;;;;;;13.57;6.63;;;;;;;16.56;65.25;101916.47;4881075;29;20120;-91
2021/12/15 08:37:13;;;;;;;12.68;6.30;;;;;;;16.66;64.76;101917.53;4881793;29;20033;-89
2021/12/15 08:39:39;;;;;;;12.02;5.97;;;;;;;16.75;64.14;101921.38;4882179;29;20028;-90
2021/12/15 08:42:05;;;;;;;10.23;6.57;;;;;;;16.54;64.82;101921.03;4879698;29;20124;-89
2021/12/15 08:44:30;;;;;;;13.40;6.28;;;;;;;16.65;64.84;101929.13;4880456;29;20063;-90
2021/12/15 08:46:56;;;;;;;14.73;7.50;;;;;;;16.58;64.94;101927.84;4881568;29;20384;-91
2021/12/15 08:49:23;;;;;;;19.42;7.93;;;;;;;16.62;64.74;101926.66;4881949;29;20033;-91
2021/12/15 08:51:48;;;;;;;10.52;6.70;;;;;;;16.77;64.18;101937.19;4881434;29;20088;-90
2021/12/15 08:54:18;;;;;;;13.68;6.22;;;;;;;16.78;64.19;101938.88;4881757;29;20044;-89
2021/12/15 08:56:44;;;;;;;13.32;6.95;;;;;;;16.73;64.20;101933.06;4880660;29;20029;-90
2021/12/15 08:59:10;;;;;;;12.30;6.55;;;;;;;16.79;64.16;101935.28;4881044;29;20105;-90
2021/12/15 09:01:37;;;;;;;11.95;5.90;;;;;;;16.87;64.15;101935.59;4880944;29;20044;-90
2021/12/15 09:04:03;;;;;;;9.50;6.30;;;;;;;16.78;64.59;101937.06;4881167;29;20037;-90
2021/12/15 09:06:29;;;;;;;12.18;5.70;;;;;;;16.77;64.29;101945.13;4880802;29;20025;-90
2021/12/15 09:08:54;;;;;;;10.35;6.25;;;;;;;16.87;64.60;101943.56;4881143;29;20029;-90
2021/12/15 09:11:24;;;;;;;17.77;6.72;;;;;;;16.92;63.95;101941.41;4880135;29;20486;-91
2021/12/15 09:13:52;;;;;;;11.80;6.68;;;;;;;16.76;64.45;101944.28;4880477;29;20057;-91
2021/12/15 09:16:19;;;;;;;14.18;6.72;;;;;;;16.79;64.51;101935.28;4879591;29;20033;-90
2021/12/15 09:18:46;;;;;;;14.07;6.88;;;;;;;16.78;64.57;101946.81;4880018;29;20033;-88
2021/12/15 09:21:16;;;;;;;14.85;6.90;;;;;;;16.74;64.19;101950.66;4879488;29;20522;-90
2021/12/15 09:23:42;;;;;;;13.57;6.20;;;;;;;16.88;63.94;101947.06;4880045;29;20053;-88
2021/12/15 09:26:08;;;;;;;10.82;6.75;;;;;;;17.00;63.50;101949.72;4879449;29;20029;-88
2021/12/15 09:28:35;;;;;;;12.55;5.82;;;;;;;16.85;64.14;101954.28;4878959;29;20483;-87
2021/12/15 09:31:03;;;;;;;9.38;5.53;;;;;;;17.09;63.76;101955.31;4879979;29;20156;-89
2021/12/15 09:33:30;;;;;;;13.13;5.82;;;;;;;17.13;63.60;101956.81;4879328;29;20132;-89
2021/12/15 09:35:57;;;;;;;10.98;5.97;;;;;;;17.16;63.56;101953.91;4880171;29;20037;-89
2021/12/15 09:38:23;;;;;;;11.77;6.18;;;;;;;17.20;62.90;101958.91;4881097;29;20037;-94
2021/12/15 09:40:52;;;;;;;8.80;5.93;;;;;;;17.27;63.28;101954.00;4880307;29;20033;-92
2021/12/15 09:43:19;;;;;;;10.30;5.70;;;;;;;17.30;63.29;101963.53;4879925;29;20040;-90
2021/12/15 09:45:55;;;;;;;11.25;5.95;;;;;;;17.28;63.34;101958.38;4879733;29;20501;-92
2021/12/15 09:57:09;;;;;;;9.98;5.47;;;;;;;17.56;62.54;101959.03;4883002;29;20032;-89
2021/12/15 10:18:38;;;;;;;9.48;5.50;;;;;;;17.68;62.10;101990.00;4878444;29;20431;-89
2021/12/15 10:21:05;;;;;;;12.32;6.05;;;;;;;17.52;61.96;101987.59;4884789;29;20074;-89
2021/12/15 10:23:38;;;;;;;12.60;5.53;;;;;;;17.71;61.69;101995.06;4884255;29;20072;-90
2021/12/15 10:26:06;;;;;;;9.73;5.55;;;;;;;17.48;62.26;102002.06;4878605;29;20029;-90
2021/12/15 10:28:34;;;;;;;8.43;5.53;;;;;;;17.75;61.76;102007.19;4879720;29;20531;-90
2021/12/15 10:31:08;;;;;;;11.05;5.28;;;;;;;17.73;61.86;102003.81;4878405;29;20045;-92
2021/12/15 10:33:43;;;;;;;11.77;5.65;;;;;;;17.80;61.86;101997.06;4879413;29;20172;-92
2021/12/15 10:36:13;;;;;;;10.77;6.28;;;;;;;17.73;62.37;102002.94;4879419;29;20021;-91
2021/12/15 10:38:48;;;;;;;8.02;6.15;;;;;;;17.80;61.70;101994.41;4877726;29;20045;-92
2021/12/15 10:41:33;;;;;;;10.13;5.53;;;;;;;18.03;61.13;102005.19;4874273;29;20041;-90
2021/12/15 10:44:16;;;;;;;12.48;5.45;;;;;;;17.89;60.92;102000.03;4878565;29;20536;-90
2021/12/15 10:46:49;;;;;;;12.98;5.90;;;;;;;17.58;62.08;102004.91;4878234;29;20040;-89
2021/12/15 10:49:20;;;;;;;11.85;5.45;;;;;;;17.93;60.78;102004.16;4879443;29;20040;-92
2021/12/15 10:51:49;;;;;;;7.85;5.20;;;;;;;17.65;60.66;102000.81;4878276;29;20056;-94
2021/12/15 10:54:37;;;;;;;7.10;4.82;;;;;;;17.83;60.93;101996.88;4878256;29;20033;-93
2021/12/15 10:57:08;;;;;;;11.65;5.55;;;;;;;17.88;60.25;102001.84;4880175;29;20044;-94
2021/12/15 10:59:49;;;;;;;8.20;5.43;;;;;;;17.60;61.18;102003.00;4880328;29;20029;-93
2021/12/15 11:02:25;;;;;;;8.50;5.10;;;;;;;17.81;60.58;102003.22;4879908;29;20037;-93
2021/12/15 11:04:55;;;;;;;8.75;5.13;;;;;;;17.74;61.47;102002.81;4878899;29;20167;-94
2021/12/15 11:07:23;;;;;;;9.48;5.00;;;;;;;17.76;61.38;102006.22;4879269;29;20073;-93
2021/12/15 11:09:57;;;;;;;9.82;5.22;;;;;;;17.86;61.19;102003.78;4879291;29;20029;-93
2021/12/15 11:12:31;;;;;;;7.60;4.93;;;;;;;17.94;59.84;102000.56;4879273;29;20096;-93
2021/12/15 11:15:09;;;;;;;9.68;5.05;;;;;;;17.89;59.96;102002.69;4879649;29;20116;-93
2021/12/15 11:17:40;;;;;;;10.75;5.30;;;;;;;17.91;60.06;102000.75;4880051;29;20023;-93
2021/12/15 11:20:13;;;;;;;9.93;5.50;;;;;;;17.71;61.03;101997.72;4879591;29;20048;-94
2021/12/15 11:22:41;;;;;;;9.95;5.20;;;;;;;17.72;60.63;101996.78;4879012;29;20562;-93
2021/12/15 11:25:48;;;;;;;7.07;4.78;;;;;;;17.99;60.28;101990.41;4879588;29;20037;-93
2021/12/15 11:28:27;;;;;;;9.25;4.90;;;;;;;17.72;59.91;101990.63;4879225;29;20029;-93
2021/12/15 11:31:14;;;;;;;6.53;4.13;;;;;;;17.98;59.72;101986.91;4878477;29;20029;-93
2021/12/15 11:33:39;;;;;;;10.65;5.18;;;;;;;18.00;59.83;101992.13;4878178;29;20406;-93
2021/12/15 11:36:22;;;;;;;13.25;6.07;;;;;;;17.87;60.21;101993.97;4879926;29;20021;-92
2021/12/15 11:38:52;;;;;;;11.23;5.10;;;;;;;18.00;59.93;101992.13;4879336;29;20039;-94
2021/12/15 11:41:21;;;;;;;11.18;5.53;;;;;;;17.68;60.35;101984.69;4881977;29;20104;-93
2021/12/15 11:43:57;;;;;;;10.57;5.72;;;;;;;17.88;59.81;101993.88;4883208;29;20075;-94
2021/12/15 11:46:33;;;;;;;12.05;5.07;;;;;;;17.90;59.71;101986.63;4883210;29;20029;-94
2021/12/15 11:49:06;;;;;;;9.38;5.15;;;;;;;18.09;59.76;101983.47;4884803;29;20053;-93
2021/12/15 11:51:48;;;;;;;9.73;5.05;;;;;;;18.24;59.25;101990.28;4883188;29;20025;-93
2021/12/15 11:54:19;;;;;;;7.85;4.47;;;;;;;17.96;59.67;101988.84;4882912;29;20040;-94
2021/12/15 11:56:47;;;;;;;8.02;4.35;;;;;;;18.07;59.64;101990.72;4883101;29;20033;-94
2021/12/15 11:59:18;;;;;;;7.80;4.57;;;;;;;18.17;59.78;101988.22;4883219;29;20562;-94
2021/12/15 12:01:52;;;;;;;7.53;4.80;;;;;;;18.32;59.16;101986.19;4883169;29;20112;-93
2021/12/15 12:04:46;;;;;;;11.65;5.15;;;;;;;18.14;59.08;101991.94;4882694;29;20375;-93
2021/12/15 12:07:34;;;;;;;8.25;4.75;;;;;;;18.00;59.13;101990.31;4883307;29;20037;-93
2021/12/15 12:10:06;;;;;;;9.13;4.63;;;;;;;18.16;59.08;101990.00;4882781;29;20111;-93
2021/12/15 12:12:39;;;;;;;9.05;4.80;;;;;;;18.11;58.86;101993.97;4882656;29;20040;-93
2021/12/15 12:15:13;;;;;;;8.38;4.20;;;;;;;18.01;59.47;101991.19;4882553;29;20040;-94
2021/12/15 12:17:40;;;;;;;9.15;4.70;;;;;;;17.96;59.65;101982.69;4882467;29;20029;-93
2021/12/15 12:20:18;;;;;;;9.95;4.85;;;;;;;17.93;59.66;101986.44;4882791;29;20471;-93
2021/12/15 12:22:46;;;;;;;8.82;4.60;;;;;;;18.03;59.07;101994.56;4882477;29;20123;-93
2021/12/15 12:25:17;;;;;;;8.98;4.63;;;;;;;18.01;59.14;101985.84;4882449;29;20064;-94
2021/12/15 12:27:44;;;;;;;8.50;4.55;;;;;;;17.98;59.29;101976.28;4882560;29;20033;-94
2021/12/15 12:30:17;;;;;;;9.18;4.68;;;;;;;18.10;58.99;101992.28;4882524;29;20064;-94
2021/12/15 12:32:44;;;;;;;9.05;4.72;;;;;;;17.91;59.48;101990.13;4881547;29;20025;-94
2021/12/15 12:35:11;;;;;;;11.00;4.63;;;;;;;18.02;59.74;101998.16;4882760;29;20071;-92
2021/12/15 12:37:38;;;;;;;8.35;4.68;;;;;;;18.07;59.42;101989.84;4880895;29;20029;-93
2021/12/15 12:40:33;;;;;;;9.07;5.38;;;;;;;18.04;59.72;101991.78;4882205;29;20020;-93
2021/12/15 12:42:59;;;;;;;10.15;5.10;;;;;;;17.86;59.32;101994.97;4882630;29;20069;-93
2021/12/15 12:45:42;;;;;;;10.32;6.03;;;;;;;17.69;59.52;101989.03;4882085;29;20037;-93
2021/12/15 12:59:58;;;;;;;10.20;5.38;;;;;;;17.77;59.92;101993.78;4863405;29;20559;-94